Time;durP1;ratioP1;P1;durP2;ratioP2;P2;SDS_P1;SDS_P2;PMS_P1;PMS_P2;Temp;Humidity;BMP_temperature;BMP_pressure;BME280_temperature;BME280_humidity;BME280_pressure;Samples;Min_cycle;Max_cycle;Signal;HPM_P1;HPM_P2
2021/08/23 00:01:03;;;;;;;4.77;4.00;;;;;;;;;;5128981;27;20541;-73
2021/08/23 00:03:31;;;;;;;5.70;4.10;;;;;;;;;;5137304;27;20449;-73
2021/08/23 00:05:59;;;;;;;6.40;3.50;;;;;;;;;;5138586;27;20457;-73
2021/08/23 00:08:29;;;;;;;6.97;4.50;;;;;;;;;;5138740;27;20514;-73
2021/08/23 00:10:57;;;;;;;8.90;5.70;;;;;;;;;;5118748;28;20477;-73
2021/08/23 00:13:25;;;;;;;6.93;4.40;;;;;;;;;;5118890;27;20707;-73
2021/08/23 00:15:55;;;;;;;6.40;4.10;;;;;;;;;;5118634;27;20520;-73
2021/08/23 00:18:25;;;;;;;6.57;3.60;;;;;;;;;;5126155;27;20534;-73
2021/08/23 00:20:56;;;;;;;5.80;3.67;;;;;;;;;;5127744;27;20459;-73
2021/08/23 00:23:25;;;;;;;9.00;4.73;;;;;;;;;;5122259;27;20451;-73
2021/08/23 00:25:53;;;;;;;5.53;4.00;;;;;;;;;;5119252;27;20478;-73
2021/08/23 00:28:24;;;;;;;5.83;4.30;;;;;;;;;;5132157;27;20452;-72
2021/08/23 00:30:52;;;;;;;4.83;4.20;;;;;;;;;;5124498;27;20753;-73
2021/08/23 00:33:25;;;;;;;5.47;3.83;;;;;;;;;;5138569;27;20542;-73
2021/08/23 00:35:53;;;;;;;6.97;4.10;;;;;;;;;;5139093;27;20830;-73
2021/08/23 00:38:20;;;;;;;5.17;4.30;;;;;;;;;;5138849;27;20525;-73
2021/08/23 00:40:49;;;;;;;9.90;3.70;;;;;;;;;;5129718;27;20469;-72
2021/08/23 00:43:17;;;;;;;4.93;3.00;;;;;;;;;;5138173;27;20456;-72
2021/08/23 00:45:47;;;;;;;6.03;4.30;;;;;;;;;;5128122;27;20459;-73
2021/08/23 00:48:14;;;;;;;6.37;3.67;;;;;;;;;;5118165;28;20563;-73
2021/08/23 00:50:44;;;;;;;6.83;4.20;;;;;;;;;;5117733;27;20455;-72
2021/08/23 00:53:12;;;;;;;9.73;3.50;;;;;;;;;;5117921;28;20464;-73
2021/08/23 00:55:39;;;;;;;5.80;3.20;;;;;;;;;;5121078;27;20459;-73
2021/08/23 00:58:07;;;;;;;8.53;5.17;;;;;;;;;;5138480;27;20446;-73
2021/08/23 01:00:36;;;;;;;8.63;4.37;;;;;;;;;;5128714;27;20447;-72
2021/08/23 01:03:08;;;;;;;5.63;4.03;;;;;;;;;;5117430;28;20453;-73
2021/08/23 01:05:36;;;;;;;9.40;4.20;;;;;;;;;;5118626;28;20447;-72
2021/08/23 01:08:07;;;;;;;7.53;5.07;;;;;;;;;;5116837;28;20482;-73
2021/08/23 01:10:43;;;;;;;5.40;4.17;;;;;;;;;;5133212;27;20460;-73
2021/08/23 01:13:11;;;;;;;7.43;3.80;;;;;;;;;;5136237;27;20445;-73
2021/08/23 01:15:39;;;;;;;5.00;3.77;;;;;;;;;;5137575;27;20519;-73
2021/08/23 01:18:10;;;;;;;6.53;3.73;;;;;;;;;;5137946;27;20448;-73
2021/08/23 01:20:40;;;;;;;6.87;4.20;;;;;;;;;;5137651;27;20492;-73
2021/08/23 01:23:11;;;;;;;5.50;4.40;;;;;;;;;;5138189;27;20450;-73
2021/08/23 01:25:40;;;;;;;4.90;4.07;;;;;;;;;;5137666;27;20458;-73
2021/08/23 01:28:10;;;;;;;5.43;3.73;;;;;;;;;;5131528;27;20485;-73
2021/08/23 01:30:44;;;;;;;7.60;4.37;;;;;;;;;;5117635;28;20455;-72
2021/08/23 01:33:13;;;;;;;5.87;3.83;;;;;;;;;;5117668;28;20443;-72
2021/08/23 01:35:42;;;;;;;5.20;3.47;;;;;;;;;;5117120;28;20459;-73
2021/08/23 01:38:09;;;;;;;5.60;3.57;;;;;;;;;;5126217;28;20473;-72
2021/08/23 01:40:37;;;;;;;5.80;3.50;;;;;;;;;;5136103;27;20922;-73
2021/08/23 01:43:07;;;;;;;6.20;3.77;;;;;;;;;;5137554;27;20454;-73
2021/08/23 01:45:35;;;;;;;10.00;4.60;;;;;;;;;;5137054;27;20478;-73
2021/08/23 01:48:03;;;;;;;6.03;3.90;;;;;;;;;;5138005;27;20477;-72
2021/08/23 01:50:32;;;;;;;5.90;3.10;;;;;;;;;;5137629;28;20893;-72
2021/08/23 01:53:00;;;;;;;5.63;3.70;;;;;;;;;;5137842;28;20446;-73
2021/08/23 01:55:28;;;;;;;10.77;4.53;;;;;;;;;;5137090;28;20477;-73
2021/08/23 01:57:56;;;;;;;7.93;3.47;;;;;;;;;;5137803;27;20457;-73
2021/08/23 02:00:24;;;;;;;6.90;3.53;;;;;;;;;;5129790;28;20847;-72
2021/08/23 02:02:52;;;;;;;4.13;2.60;;;;;;;;;;5117051;28;20735;-72
2021/08/23 02:05:20;;;;;;;4.80;2.97;;;;;;;;;;5118154;28;20466;-73
2021/08/23 02:07:52;;;;;;;4.33;3.33;;;;;;;;;;5117722;28;20841;-73
2021/08/23 02:10:20;;;;;;;5.70;3.00;;;;;;;;;;5124155;28;20450;-72
2021/08/23 02:12:48;;;;;;;5.47;3.23;;;;;;;;;;5138254;28;20510;-73
2021/08/23 02:15:16;;;;;;;5.47;3.50;;;;;;;;;;5130147;28;20467;-73
2021/08/23 02:17:43;;;;;;;6.50;4.27;;;;;;;;;;5116745;28;20454;-73
2021/08/23 02:20:12;;;;;;;8.70;3.93;;;;;;;;;;5117295;28;20447;-73
2021/08/23 02:22:40;;;;;;;6.30;4.03;;;;;;;;;;5116926;28;20516;-72
2021/08/23 02:25:10;;;;;;;8.53;3.43;;;;;;;;;;5123919;27;20518;-73
2021/08/23 02:27:43;;;;;;;4.77;3.13;;;;;;;;;;5141257;27;20477;-72
2021/08/23 02:30:11;;;;;;;6.47;3.60;;;;;;;;;;5128122;27;20458;-72
2021/08/23 02:32:39;;;;;;;6.17;3.10;;;;;;;;;;5120956;28;20913;-73
2021/08/23 02:35:08;;;;;;;4.37;2.90;;;;;;;;;;5120877;27;20524;-73
2021/08/23 02:37:36;;;;;;;8.43;3.57;;;;;;;;;;5120543;28;20446;-72
2021/08/23 02:40:05;;;;;;;5.10;2.70;;;;;;;;;;5121555;27;20439;-73
2021/08/23 02:42:37;;;;;;;4.67;2.57;;;;;;;;;;5120509;28;20466;-73
2021/08/23 02:45:06;;;;;;;4.73;3.40;;;;;;;;;;5120262;27;20473;-73
2021/08/23 02:47:36;;;;;;;4.07;2.07;;;;;;;;;;5120352;28;20485;-72
2021/08/23 02:50:05;;;;;;;5.20;2.20;;;;;;;;;;5120308;27;20471;-73
2021/08/23 02:52:33;;;;;;;3.00;2.50;;;;;;;;;;5121033;27;20545;-72
2021/08/23 02:55:01;;;;;;;4.20;2.40;;;;;;;;;;5137349;27;20438;-72
2021/08/23 02:57:29;;;;;;;3.23;2.50;;;;;;;;;;5140610;27;20867;-72
2021/08/23 02:59:58;;;;;;;7.33;2.60;;;;;;;;;;5135892;27;20443;-72
2021/08/23 03:02:26;;;;;;;3.23;1.83;;;;;;;;;;5123391;27;20464;-71
2021/08/23 03:04:54;;;;;;;4.20;1.70;;;;;;;;;;5140182;27;20453;-71
2021/08/23 03:07:22;;;;;;;7.10;4.43;;;;;;;;;;5140717;27;20528;-71
2021/08/23 03:09:49;;;;;;;3.20;1.90;;;;;;;;;;5140360;27;20456;-71
2021/08/23 03:12:17;;;;;;;6.57;2.57;;;;;;;;;;5139968;27;20501;-73
2021/08/23 03:14:45;;;;;;;3.67;2.20;;;;;;;;;;5139774;27;20458;-72
2021/08/23 03:17:20;;;;;;;4.60;2.00;;;;;;;;;;5139298;27;20450;-72
2021/08/23 03:19:48;;;;;;;2.77;2.07;;;;;;;;;;5139816;27;20786;-72
2021/08/23 03:22:16;;;;;;;3.23;1.80;;;;;;;;;;5139593;27;20490;-72
2021/08/23 03:24:44;;;;;;;2.57;1.83;;;;;;;;;;5140150;27;20503;-72
2021/08/23 03:27:12;;;;;;;4.13;1.90;;;;;;;;;;5139849;27;20877;-72
2021/08/23 03:29:40;;;;;;;5.20;2.10;;;;;;;;;;5138320;27;21163;-72
2021/08/23 03:32:12;;;;;;;6.40;2.60;;;;;;;;;;5123075;27;20462;-74
2021/08/23 03:34:44;;;;;;;5.43;1.90;;;;;;;;;;5119181;28;20443;-74
2021/08/23 03:37:15;;;;;;;4.83;1.83;;;;;;;;;;5118722;27;20459;-72
2021/08/23 03:39:43;;;;;;;2.50;1.67;;;;;;;;;;5132898;27;20445;-72
2021/08/23 03:42:11;;;;;;;3.53;1.70;;;;;;;;;;5119300;28;20459;-72
2021/08/23 03:44:39;;;;;;;2.63;1.60;;;;;;;;;;5119558;27;20534;-72
2021/08/23 03:47:07;;;;;;;2.80;1.87;;;;;;;;;;5132276;27;20462;-72
2021/08/23 03:49:35;;;;;;;4.70;1.40;;;;;;;;;;5139149;27;20460;-72
2021/08/23 03:52:04;;;;;;;4.57;1.83;;;;;;;;;;5135259;27;20562;-72
2021/08/23 03:54:32;;;;;;;5.57;2.30;;;;;;;;;;5119096;27;20454;-72
2021/08/23 03:57:00;;;;;;;3.37;1.43;;;;;;;;;;5118816;28;20451;-72
2021/08/23 03:59:28;;;;;;;4.43;1.67;;;;;;;;;;5119204;28;20451;-72
2021/08/23 04:01:57;;;;;;;2.93;1.57;;;;;;;;;;5123462;27;20552;-72
2021/08/23 04:04:24;;;;;;;4.33;1.70;;;;;;;;;;5138075;27;20499;-72
2021/08/23 04:06:52;;;;;;;3.70;1.73;;;;;;;;;;5134945;27;20803;-71
2021/08/23 04:09:22;;;;;;;2.63;1.60;;;;;;;;;;5138861;27;20473;-71
2021/08/23 04:11:50;;;;;;;4.57;1.70;;;;;;;;;;5138992;27;20552;-71
2021/08/23 04:14:18;;;;;;;6.60;2.13;;;;;;;;;;5125226;27;20542;-70
2021/08/23 04:16:45;;;;;;;6.20;2.37;;;;;;;;;;5118567;27;20458;-72
2021/08/23 04:19:13;;;;;;;3.63;1.70;;;;;;;;;;5119332;27;20780;-72
2021/08/23 04:21:41;;;;;;;3.00;1.63;;;;;;;;;;5118702;28;20516;-72
2021/08/23 04:24:12;;;;;;;2.20;1.50;;;;;;;;;;5117997;28;20451;-72
2021/08/23 04:26:41;;;;;;;2.57;1.43;;;;;;;;;;5136147;27;20461;-72
2021/08/23 04:29:09;;;;;;;2.47;1.40;;;;;;;;;;5138349;27;20481;-71
2021/08/23 04:31:37;;;;;;;4.17;1.53;;;;;;;;;;5119966;27;20516;-72
2021/08/23 04:34:05;;;;;;;4.23;2.27;;;;;;;;;;5117658;27;20455;-70
2021/08/23 04:36:32;;;;;;;5.10;2.30;;;;;;;;;;5117844;28;20480;-71
2021/08/23 04:39:03;;;;;;;8.00;2.13;;;;;;;;;;5117579;27;20504;-73
2021/08/23 04:41:30;;;;;;;6.13;1.60;;;;;;;;;;5118240;27;20881;-72
2021/08/23 04:44:00;;;;;;;2.50;1.87;;;;;;;;;;5118333;28;20459;-72
2021/08/23 04:46:27;;;;;;;5.63;2.80;;;;;;;;;;5131645;27;20518;-71
2021/08/23 04:48:55;;;;;;;4.33;2.13;;;;;;;;;;5120261;27;20559;-72
2021/08/23 04:51:24;;;;;;;3.50;1.80;;;;;;;;;;5118070;28;20458;-72
2021/08/23 04:53:52;;;;;;;2.70;1.80;;;;;;;;;;5118181;27;20512;-72
2021/08/23 04:56:19;;;;;;;5.07;1.53;;;;;;;;;;5135480;27;20452;-72
2021/08/23 04:58:47;;;;;;;3.20;2.10;;;;;;;;;;5137802;27;20452;-72
2021/08/23 05:01:17;;;;;;;3.17;1.90;;;;;;;;;;5136768;27;20866;-72
2021/08/23 05:03:44;;;;;;;2.90;2.07;;;;;;;;;;5128570;27;20450;-72
2021/08/23 05:06:13;;;;;;;4.50;2.13;;;;;;;;;;5117236;28;20443;-72
2021/08/23 05:08:41;;;;;;;4.43;1.87;;;;;;;;;;5118350;28;20493;-72
2021/08/23 05:11:10;;;;;;;3.83;1.60;;;;;;;;;;5132740;27;20460;-72
2021/08/23 05:13:38;;;;;;;5.23;1.83;;;;;;;;;;5123436;27;20466;-72
2021/08/23 05:16:09;;;;;;;3.30;1.93;;;;;;;;;;5120649;27;20922;-72
2021/08/23 05:18:38;;;;;;;2.90;1.83;;;;;;;;;;5126157;27;20548;-72
2021/08/23 05:21:06;;;;;;;9.10;2.13;;;;;;;;;;5137142;27;20448;-72
2021/08/23 05:23:34;;;;;;;2.87;1.70;;;;;;;;;;5136820;27;20782;-72
2021/08/23 05:26:03;;;;;;;3.63;2.00;;;;;;;;;;5137514;27;20749;-71
2021/08/23 05:28:30;;;;;;;3.10;1.60;;;;;;;;;;5137012;27;20466;-72
2021/08/23 05:30:58;;;;;;;4.33;1.83;;;;;;;;;;5135624;27;20922;-72
2021/08/23 05:33:29;;;;;;;2.87;1.80;;;;;;;;;;5123727;27;20551;-72
2021/08/23 05:35:59;;;;;;;4.67;2.27;;;;;;;;;;5118263;27;20453;-72
2021/08/23 05:38:27;;;;;;;3.37;2.20;;;;;;;;;;5134637;27;20495;-72
2021/08/23 05:40:54;;;;;;;3.80;1.83;;;;;;;;;;5136719;27;20449;-73
2021/08/23 05:43:23;;;;;;;4.23;2.03;;;;;;;;;;5137472;27;20537;-72
2021/08/23 05:45:51;;;;;;;3.30;1.80;;;;;;;;;;5118105;27;20449;-72
2021/08/23 05:48:18;;;;;;;4.57;1.60;;;;;;;;;;5116722;28;20478;-72
2021/08/23 05:50:46;;;;;;;5.27;2.20;;;;;;;;;;5120628;28;20839;-72
2021/08/23 05:53:15;;;;;;;4.33;1.93;;;;;;;;;;5135865;27;20460;-72
2021/08/23 05:55:43;;;;;;;3.60;1.80;;;;;;;;;;5126156;28;20513;-72
2021/08/23 05:58:11;;;;;;;6.63;2.50;;;;;;;;;;5115769;28;20484;-72
2021/08/23 06:00:39;;;;;;;4.13;1.97;;;;;;;;;;5120175;28;20531;-73
2021/08/23 06:03:07;;;;;;;2.87;1.50;;;;;;;;;;5121786;27;20891;-72
2021/08/23 06:05:38;;;;;;;4.30;2.63;;;;;;;;;;5120206;28;20821;-72
2021/08/23 06:08:07;;;;;;;2.90;1.57;;;;;;;;;;5137294;27;20978;-75
2021/08/23 06:10:39;;;;;;;5.70;2.00;;;;;;;;;;5140784;27;20449;-72
2021/08/23 06:13:07;;;;;;;2.40;1.80;;;;;;;;;;5140065;27;20720;-73
2021/08/23 06:15:38;;;;;;;11.97;2.40;;;;;;;;;;5128074;27;20784;-73
2021/08/23 06:18:06;;;;;;;7.20;2.20;;;;;;;;;;5135123;27;21058;-72
2021/08/23 06:20:34;;;;;;;5.13;2.80;;;;;;;;;;5139944;27;20444;-72
2021/08/23 06:23:01;;;;;;;6.67;2.43;;;;;;;;;;5126801;27;20457;-72
2021/08/23 06:25:30;;;;;;;6.87;2.10;;;;;;;;;;5119901;28;20458;-72
2021/08/23 06:27:59;;;;;;;3.80;1.70;;;;;;;;;;5132218;27;20933;-72
2021/08/23 06:30:33;;;;;;;12.87;2.73;;;;;;;;;;5137730;27;20446;-72
2021/08/23 06:33:02;;;;;;;4.20;2.10;;;;;;;;;;5138809;27;20445;-73
2021/08/23 06:35:29;;;;;;;4.50;1.80;;;;;;;;;;5138843;27;20446;-72
2021/08/23 06:37:58;;;;;;;5.17;2.43;;;;;;;;;;5138855;27;20456;-72
2021/08/23 06:40:36;;;;;;;3.93;2.40;;;;;;;;;;5129895;27;20456;-73
2021/08/23 06:43:11;;;;;;;3.63;2.00;;;;;;;;;;5127523;27;20504;-72
2021/08/23 06:45:39;;;;;;;3.80;1.67;;;;;;;;;;5136368;27;20552;-72
2021/08/23 06:48:08;;;;;;;10.00;3.73;;;;;;;;;;5137365;27;20475;-72
2021/08/23 06:50:36;;;;;;;4.53;1.97;;;;;;;;;;5139582;27;20449;-72
2021/08/23 06:53:05;;;;;;;3.97;1.90;;;;;;;;;;5139338;27;20474;-72
2021/08/23 06:55:34;;;;;;;3.27;1.60;;;;;;;;;;5137287;27;20453;-72
2021/08/23 06:58:07;;;;;;;3.70;1.73;;;;;;;;;;5133878;27;20580;-73
2021/08/23 07:00:37;;;;;;;5.70;1.60;;;;;;;;;;5122026;27;20475;-72
2021/08/23 07:03:06;;;;;;;3.43;2.53;;;;;;;;;;5138929;27;20473;-72
2021/08/23 07:05:34;;;;;;;2.97;1.70;;;;;;;;;;5139536;27;20457;-71
2021/08/23 07:08:04;;;;;;;5.03;1.50;;;;;;;;;;5138488;27;21307;-72
2021/08/23 07:10:33;;;;;;;5.50;1.90;;;;;;;;;;5138452;27;20442;-73
2021/08/23 07:13:01;;;;;;;5.23;1.70;;;;;;;;;;5138369;27;20774;-73
2021/08/23 07:15:29;;;;;;;3.33;2.00;;;;;;;;;;5138941;27;20554;-73
2021/08/23 07:17:58;;;;;;;2.90;1.80;;;;;;;;;;5139410;27;20457;-73
2021/08/23 07:20:26;;;;;;;7.03;3.17;;;;;;;;;;5139427;27;20486;-73
2021/08/23 07:22:54;;;;;;;2.80;1.50;;;;;;;;;;5139988;27;20454;-73
2021/08/23 07:25:23;;;;;;;3.07;1.60;;;;;;;;;;5139286;27;20768;-73
2021/08/23 07:27:51;;;;;;;2.63;1.67;;;;;;;;;;5139716;27;20453;-73
2021/08/23 07:30:19;;;;;;;2.73;1.60;;;;;;;;;;5138924;27;21065;-74
2021/08/23 07:32:47;;;;;;;2.60;1.80;;;;;;;;;;5139638;27;20510;-74
2021/08/23 07:35:16;;;;;;;1.93;1.13;;;;;;;;;;5139269;27;20485;-73
2021/08/23 07:37:48;;;;;;;3.63;1.97;;;;;;;;;;5138055;27;20446;-73
2021/08/23 07:40:17;;;;;;;2.50;1.50;;;;;;;;;;5138167;27;20438;-72
2021/08/23 07:42:45;;;;;;;7.00;1.60;;;;;;;;;;5137209;27;20533;-73
2021/08/23 07:45:14;;;;;;;3.67;1.60;;;;;;;;;;5139018;27;20445;-72
2021/08/23 07:47:44;;;;;;;3.30;1.63;;;;;;;;;;5138206;27;20533;-73
2021/08/23 07:50:15;;;;;;;3.30;1.57;;;;;;;;;;5137605;27;20605;-74
2021/08/23 07:52:45;;;;;;;6.23;1.77;;;;;;;;;;5125550;27;20487;-74
2021/08/23 07:55:13;;;;;;;2.57;1.67;;;;;;;;;;5117174;28;20745;-73
2021/08/23 07:57:45;;;;;;;2.10;1.50;;;;;;;;;;5123048;27;20505;-73
2021/08/23 08:00:15;;;;;;;3.50;2.30;;;;;;;;;;5137353;27;20834;-73
2021/08/23 08:02:43;;;;;;;2.50;1.97;;;;;;;;;;5138453;27;20690;-74
2021/08/23 08:05:12;;;;;;;4.40;1.83;;;;;;;;;;5137784;27;20445;-73
2021/08/23 08:07:42;;;;;;;3.27;1.93;;;;;;;;;;5138034;27;20446;-73
2021/08/23 08:10:13;;;;;;;2.03;1.30;;;;;;;;;;5137125;27;20897;-73
2021/08/23 08:12:42;;;;;;;2.97;1.60;;;;;;;;;;5137679;27;20453;-73
2021/08/23 08:15:11;;;;;;;3.00;1.13;;;;;;;;;;5137855;27;20514;-73
2021/08/23 08:17:42;;;;;;;3.87;1.63;;;;;;;;;;5138190;27;20461;-73
2021/08/23 08:20:10;;;;;;;5.03;1.50;;;;;;;;;;5137589;27;20446;-73
2021/08/23 08:22:38;;;;;;;2.33;1.10;;;;;;;;;;5136581;27;20526;-73
2021/08/23 08:25:09;;;;;;;4.37;2.00;;;;;;;;;;5136334;27;20452;-73
2021/08/23 08:27:40;;;;;;;3.60;1.30;;;;;;;;;;5132758;27;20493;-72
2021/08/23 08:30:17;;;;;;;6.40;3.30;;;;;;;;;;5129912;27;20867;-73
2021/08/23 08:32:52;;;;;;;3.63;1.73;;;;;;;;;;5137549;27;20785;-73
2021/08/23 08:35:22;;;;;;;2.70;1.60;;;;;;;;;;5137341;27;20445;-73
2021/08/23 08:37:52;;;;;;;2.87;1.20;;;;;;;;;;5136204;27;20510;-72
2021/08/23 08:40:20;;;;;;;2.93;2.10;;;;;;;;;;5137920;27;20466;-71
2021/08/23 08:42:50;;;;;;;2.00;1.20;;;;;;;;;;5137194;27;20889;-71
2021/08/23 08:45:18;;;;;;;2.80;1.90;;;;;;;;;;5136129;27;20788;-72
2021/08/23 08:47:46;;;;;;;4.77;1.70;;;;;;;;;;5134370;27;20818;-72
2021/08/23 08:50:17;;;;;;;5.40;3.57;;;;;;;;;;5135955;27;20523;-71
2021/08/23 08:52:45;;;;;;;4.50;2.10;;;;;;;;;;5136190;27;20450;-71
2021/08/23 08:55:13;;;;;;;5.27;3.17;;;;;;;;;;5137550;27;20430;-71
2021/08/23 08:57:42;;;;;;;4.43;2.20;;;;;;;;;;5135088;27;20461;-72
2021/08/23 09:00:12;;;;;;;3.73;1.53;;;;;;;;;;5136443;27;20456;-71
2021/08/23 09:02:41;;;;;;;4.80;3.37;;;;;;;;;;5135183;27;20519;-71
2021/08/23 09:05:17;;;;;;;3.60;1.50;;;;;;;;;;5129168;27;20458;-70
2021/08/23 09:07:49;;;;;;;2.57;1.40;;;;;;;;;;5132278;27;20453;-70
2021/08/23 09:10:21;;;;;;;8.07;1.77;;;;;;;;;;5130307;27;20477;-70
2021/08/23 09:13:02;;;;;;;4.60;1.60;;;;;;;;;;5134914;27;20450;-70
2021/08/23 09:15:31;;;;;;;4.30;2.43;;;;;;;;;;5125898;27;20988;-71
2021/08/23 09:18:04;;;;;;;4.30;1.87;;;;;;;;;;5122393;27;20474;-71
2021/08/23 09:20:37;;;;;;;2.20;1.70;;;;;;;;;;5130788;27;20530;-71
2021/08/23 09:23:14;;;;;;;4.50;2.27;;;;;;;;;;5128445;27;20473;-71
2021/08/23 09:25:44;;;;;;;3.93;2.00;;;;;;;;;;5134923;27;20453;-71
2021/08/23 09:28:12;;;;;;;2.90;2.03;;;;;;;;;;5136785;27;20456;-72
2021/08/23 09:30:42;;;;;;;2.67;1.60;;;;;;;;;;5135784;27;20542;-73
2021/08/23 09:33:10;;;;;;;4.33;1.83;;;;;;;;;;5135605;27;20446;-72
2021/08/23 09:35:44;;;;;;;5.20;2.00;;;;;;;;;;5136049;27;20554;-73
2021/08/23 09:38:17;;;;;;;4.97;2.03;;;;;;;;;;5136556;27;20767;-71
2021/08/23 09:40:53;;;;;;;3.30;1.63;;;;;;;;;;5138577;27;20450;-73
2021/08/23 09:43:21;;;;;;;4.50;1.97;;;;;;;;;;5137265;27;20513;-72
2021/08/23 09:46:14;;;;;;;2.97;1.63;;;;;;;;;;5175761;27;20709;-72
2021/08/23 09:48:53;;;;;;;2.90;1.70;;;;;;;;;;5154263;27;20864;-73
2021/08/23 09:51:31;;;;;;;6.60;1.63;;;;;;;;;;5154674;27;20563;-73
2021/08/23 09:54:15;;;;;;;3.07;2.27;;;;;;;;;;5162307;27;20884;-72
2021/08/23 09:56:45;;;;;;;3.70;1.67;;;;;;;;;;5157143;27;20865;-72
2021/08/23 09:59:15;;;;;;;3.50;1.83;;;;;;;;;;5132948;27;20454;-72
2021/08/23 10:01:46;;;;;;;3.00;1.93;;;;;;;;;;5132713;28;20450;-73
2021/08/23 10:04:14;;;;;;;3.37;1.77;;;;;;;;;;5157149;27;20476;-72
2021/08/23 10:07:00;;;;;;;2.93;1.70;;;;;;;;;;5173931;27;21053;-71
2021/08/23 10:09:34;;;;;;;3.53;2.23;;;;;;;;;;5159353;27;20457;-75
2021/08/23 10:12:05;;;;;;;4.00;2.10;;;;;;;;;;5146707;27;20440;-74
2021/08/23 10:14:57;;;;;;;2.63;1.73;;;;;;;;;;5155400;27;20433;-74
2021/08/23 10:17:27;;;;;;;6.30;2.20;;;;;;;;;;5146507;27;20470;-72
2021/08/23 10:19:56;;;;;;;4.63;1.93;;;;;;;;;;5132236;27;20454;-72
2021/08/23 10:22:27;;;;;;;3.03;1.40;;;;;;;;;;5150536;27;20877;-72
2021/08/23 10:24:56;;;;;;;2.13;1.47;;;;;;;;;;5150245;27;20477;-73
2021/08/23 10:27:27;;;;;;;4.13;2.47;;;;;;;;;;5141897;27;20449;-73
2021/08/23 10:30:01;;;;;;;3.30;1.97;;;;;;;;;;5153067;27;20459;-72
2021/08/23 10:32:37;;;;;;;6.17;2.20;;;;;;;;;;5143328;27;20724;-72
2021/08/23 10:35:18;;;;;;;2.83;1.77;;;;;;;;;;5140575;27;20451;-74
2021/08/23 10:37:46;;;;;;;3.10;1.53;;;;;;;;;;5151167;27;20449;-73
2021/08/23 10:40:15;;;;;;;3.20;1.57;;;;;;;;;;5150830;27;20455;-73
2021/08/23 10:42:47;;;;;;;4.50;2.40;;;;;;;;;;5151733;27;20464;-74
2021/08/23 10:45:20;;;;;;;3.03;1.70;;;;;;;;;;5165857;27;20479;-74
2021/08/23 10:47:51;;;;;;;4.80;1.97;;;;;;;;;;5173596;27;20456;-73
2021/08/23 10:50:25;;;;;;;8.37;5.30;;;;;;;;;;5171189;27;20455;-73
2021/08/23 10:52:55;;;;;;;3.80;1.90;;;;;;;;;;5175757;27;20468;-73
2021/08/23 10:55:26;;;;;;;3.57;2.10;;;;;;;;;;5172483;27;20448;-73
2021/08/23 10:58:09;;;;;;;3.10;1.67;;;;;;;;;;5158619;27;20898;-73
2021/08/23 11:00:38;;;;;;;2.77;1.50;;;;;;;;;;5157965;27;20457;-73
2021/08/23 11:03:11;;;;;;;3.10;1.80;;;;;;;;;;5151498;27;20446;-76
2021/08/23 11:05:51;;;;;;;3.40;1.90;;;;;;;;;;5137772;27;20560;-72
2021/08/23 11:08:43;;;;;;;14.23;12.83;;;;;;;;;;5145158;27;20448;-73
2021/08/23 11:11:20;;;;;;;3.20;1.90;;;;;;;;;;5150661;27;20529;-72
2021/08/23 11:13:54;;;;;;;4.70;1.93;;;;;;;;;;5159943;27;20464;-73
2021/08/23 11:16:28;;;;;;;4.67;1.80;;;;;;;;;;5146906;27;20472;-73
2021/08/23 11:19:00;;;;;;;6.87;2.40;;;;;;;;;;5167257;27;20444;-72
2021/08/23 11:21:30;;;;;;;3.50;2.20;;;;;;;;;;5155933;27;20847;-73
2021/08/23 11:24:15;;;;;;;3.50;2.30;;;;;;;;;;5148252;27;20464;-74
2021/08/23 11:27:05;;;;;;;4.60;2.70;;;;;;;;;;5144853;27;20888;-72
2021/08/23 11:30:03;;;;;;;3.70;1.93;;;;;;;;;;5156783;27;20987;-72
2021/08/23 11:32:32;;;;;;;2.97;1.67;;;;;;;;;;5148542;27;20457;-72
2021/08/23 11:35:21;;;;;;;3.90;2.50;;;;;;;;;;5149099;27;20867;-72
2021/08/23 11:37:57;;;;;;;5.50;2.23;;;;;;;;;;5146064;27;20438;-71
2021/08/23 11:40:30;;;;;;;4.93;1.70;;;;;;;;;;5158720;27;20449;-73
2021/08/23 11:43:04;;;;;;;4.33;1.60;;;;;;;;;;5161142;27;20445;-72
2021/08/23 11:45:41;;;;;;;3.87;2.50;;;;;;;;;;5148631;27;20539;-72
2021/08/23 11:51:07;;;;;;;3.43;2.17;;;;;;;;;;5116713;27;20449;-72
2021/08/23 11:53:58;;;;;;;3.20;1.70;;;;;;;;;;5152804;27;20433;-72
2021/08/23 11:56:41;;;;;;;3.10;2.10;;;;;;;;;;5151401;27;20464;-72
2021/08/23 11:59:16;;;;;;;3.00;1.20;;;;;;;;;;5150479;27;20437;-73
2021/08/23 12:01:51;;;;;;;7.10;4.83;;;;;;;;;;5150847;27;20445;-72
2021/08/23 12:04:38;;;;;;;;;;;;;;;;;;;;;
2021/08/23 12:07:15;;;;;;;4.03;1.50;;;;;;;;;;5140741;27;20449;-72
2021/08/23 12:10:04;;;;;;;3.60;2.20;;;;;;;;;;5142457;27;20720;-72
2021/08/23 12:12:41;;;;;;;5.23;2.23;;;;;;;;;;5156449;27;20463;-72
2021/08/23 12:15:27;;;;;;;2.67;1.50;;;;;;;;;;5156264;27;20429;-72
2021/08/23 12:21:24;;;;;;;7.43;1.73;;;;;;;;;;5121615;27;20454;-72
2021/08/23 12:23:58;;;;;;;2.93;1.63;;;;;;;;;;5103580;27;20750;-73
2021/08/23 12:26:27;;;;;;;3.47;1.40;;;;;;;;;;5156586;27;20918;-73
2021/08/23 12:29:00;;;;;;;4.57;1.77;;;;;;;;;;5145654;27;20445;-73
2021/08/23 12:31:29;;;;;;;2.60;1.40;;;;;;;;;;5136076;27;20891;-72
2021/08/23 12:33:57;;;;;;;2.77;1.57;;;;;;;;;;5138561;27;20466;-72
2021/08/23 12:36:30;;;;;;;4.67;1.90;;;;;;;;;;5142057;27;20478;-74
2021/08/23 12:39:30;;;;;;;3.23;1.67;;;;;;;;;;5139762;27;20425;-71
2021/08/23 12:48:20;;;;;;;2.83;1.50;;;;;;;;;;5154448;27;20460;-71
2021/08/23 12:50:52;;;;;;;3.33;2.10;;;;;;;;;;5151599;27;20892;-74
2021/08/23 12:53:20;;;;;;;2.50;1.30;;;;;;;;;;5154539;27;20477;-71
2021/08/23 12:55:58;;;;;;;4.70;1.73;;;;;;;;;;5154570;27;20485;-73
2021/08/23 12:58:29;;;;;;;2.70;1.40;;;;;;;;;;5151920;27;20728;-72
2021/08/23 13:01:04;;;;;;;2.83;1.73;;;;;;;;;;5144350;27;20483;-72
2021/08/23 13:03:45;;;;;;;3.17;1.87;;;;;;;;;;5154367;27;20450;-72
2021/08/23 13:06:23;;;;;;;3.70;1.87;;;;;;;;;;5154432;27;20927;-73
2021/08/23 13:09:20;;;;;;;5.50;1.70;;;;;;;;;;5154323;27;21073;-73
2021/08/23 13:11:49;;;;;;;2.73;1.30;;;;;;;;;;5144979;27;20516;-72
2021/08/23 13:14:31;;;;;;;2.40;1.30;;;;;;;;;;5156560;27;20531;-73
2021/08/23 13:17:00;;;;;;;3.00;2.10;;;;;;;;;;5136850;27;20527;-73
2021/08/23 13:19:55;;;;;;;3.33;1.33;;;;;;;;;;5135094;27;20452;-73
2021/08/23 13:22:26;;;;;;;5.30;1.93;;;;;;;;;;5139115;27;20862;-73
2021/08/23 13:27:50;;;;;;;3.30;1.40;;;;;;;;;;5153302;27;20679;-72
2021/08/23 13:30:29;;;;;;;2.80;1.43;;;;;;;;;;5155788;27;20864;-73
2021/08/23 13:33:03;;;;;;;4.07;1.43;;;;;;;;;;5156131;27;20809;-73
2021/08/23 13:35:33;;;;;;;4.00;2.30;;;;;;;;;;5157965;27;20433;-72
2021/08/23 13:38:04;;;;;;;2.90;1.67;;;;;;;;;;5157248;27;20445;-72
2021/08/23 13:40:34;;;;;;;4.30;2.50;;;;;;;;;;5159469;27;20816;-74
2021/08/23 13:43:09;;;;;;;5.23;2.77;;;;;;;;;;5155002;27;20484;-72
2021/08/23 13:45:53;;;;;;;2.53;1.50;;;;;;;;;;5157311;27;20486;-72
2021/08/23 13:48:24;;;;;;;3.57;2.10;;;;;;;;;;5153485;27;20454;-72
2021/08/23 13:50:55;;;;;;;2.47;1.63;;;;;;;;;;5140277;27;20510;-73
2021/08/23 13:53:28;;;;;;;5.13;2.90;;;;;;;;;;5152580;27;20456;-72
2021/08/23 13:56:24;;;;;;;4.63;1.77;;;;;;;;;;5134613;28;20445;-72
2021/08/23 13:58:58;;;;;;;1.70;1.00;;;;;;;;;;5148229;27;20457;-72
2021/08/23 14:01:30;;;;;;;2.87;0.90;;;;;;;;;;5140062;27;20532;-72
2021/08/23 14:04:03;;;;;;;2.77;1.63;;;;;;;;;;5142897;27;20442;-73
2021/08/23 14:06:42;;;;;;;3.50;2.37;;;;;;;;;;5144772;27;20474;-73
2021/08/23 14:09:20;;;;;;;3.80;1.80;;;;;;;;;;5145829;27;20456;-74
2021/08/23 14:12:13;;;;;;;5.50;3.70;;;;;;;;;;5145628;27;20525;-74
2021/08/23 14:14:51;;;;;;;6.20;2.97;;;;;;;;;;5142997;27;20502;-75
2021/08/23 14:17:32;;;;;;;3.97;2.47;;;;;;;;;;5145922;27;20547;-73
2021/08/23 14:20:01;;;;;;;2.87;1.50;;;;;;;;;;5155178;27;20481;-72
2021/08/23 14:22:33;;;;;;;2.93;1.37;;;;;;;;;;5147651;27;20487;-73
2021/08/23 14:25:18;;;;;;;4.33;2.10;;;;;;;;;;5143914;27;20488;-73
2021/08/23 14:27:49;;;;;;;2.13;1.40;;;;;;;;;;5154887;27;20451;-72
2021/08/23 14:30:18;;;;;;;1.93;1.10;;;;;;;;;;5151172;27;20814;-73
2021/08/23 14:32:46;;;;;;;3.33;1.30;;;;;;;;;;5144871;27;20444;-73
2021/08/23 14:35:30;;;;;;;3.03;1.70;;;;;;;;;;5157392;27;20467;-72
2021/08/23 14:38:10;;;;;;;2.70;1.40;;;;;;;;;;5171759;27;20447;-72
2021/08/23 14:40:45;;;;;;;2.40;1.10;;;;;;;;;;5164665;27;20461;-72
2021/08/23 14:43:14;;;;;;;2.27;1.20;;;;;;;;;;5160218;27;20531;-71
2021/08/23 14:45:54;;;;;;;2.77;1.43;;;;;;;;;;5158161;27;20481;-71
2021/08/23 14:48:29;;;;;;;1.70;1.10;;;;;;;;;;5142488;27;20449;-72
2021/08/23 14:50:57;;;;;;;3.20;2.00;;;;;;;;;;5150304;27;20460;-72
2021/08/23 14:53:29;;;;;;;2.10;1.00;;;;;;;;;;5159734;27;20706;-72
2021/08/23 14:56:00;;;;;;;2.13;1.00;;;;;;;;;;5150977;27;20464;-72
2021/08/23 14:58:38;;;;;;;2.63;1.77;;;;;;;;;;5138607;27;20441;-73
2021/08/23 15:01:24;;;;;;;3.30;1.83;;;;;;;;;;5139638;27;20540;-72
2021/08/23 15:03:58;;;;;;;2.50;1.47;;;;;;;;;;5150503;27;20520;-71
2021/08/23 15:06:50;;;;;;;2.43;1.30;;;;;;;;;;5139432;27;20480;-72
2021/08/23 15:09:33;;;;;;;3.90;2.23;;;;;;;;;;5127409;27;20749;-72
2021/08/23 15:12:21;;;;;;;4.60;2.07;;;;;;;;;;5148380;27;20471;-72
2021/08/23 15:15:24;;;;;;;4.10;2.27;;;;;;;;;;5149940;27;20481;-72
2021/08/23 15:17:58;;;;;;;5.57;2.93;;;;;;;;;;5162879;27;20528;-72
2021/08/23 15:23:31;;;;;;;3.23;1.70;;;;;;;;;;5158524;27;20438;-73
2021/08/23 15:26:11;;;;;;;2.97;1.77;;;;;;;;;;5160700;27;20505;-72
2021/08/23 15:28:50;;;;;;;2.90;1.70;;;;;;;;;;5153335;27;20540;-73